createdAt,value
2022-09-06T00:01:00.916Z,101978.84
2022-09-06T00:04:24.159Z,101980.63
2022-09-06T00:07:46.231Z,101984.94
2022-09-06T00:11:08.831Z,101981.50
2022-09-06T00:14:30.486Z,101994.50
2022-09-06T00:17:52.261Z,101991.94
2022-09-06T00:21:20.880Z,101981.59
2022-09-06T00:24:42.817Z,101985.06
2022-09-06T00:28:06.948Z,101983.34
2022-09-06T00:31:29.239Z,101983.34
2022-09-06T00:34:51.030Z,101982.50
2022-09-06T00:38:14.873Z,101979.91
2022-09-06T00:41:37.110Z,101978.16
2022-09-06T00:44:59.060Z,101978.19
2022-09-06T00:48:21.898Z,101978.19
2022-09-06T00:51:44.405Z,101980.78
2022-09-06T00:55:08.406Z,101989.41
2022-09-06T00:58:30.258Z,101980.75
2022-09-06T01:01:52.558Z,101982.50
2022-09-06T01:05:16.326Z,101972.97
2022-09-06T01:08:52.537Z,101977.31
2022-09-06T01:12:27.736Z,101970.41
2022-09-06T01:15:57.921Z,101979.88
2022-09-06T01:19:55.017Z,101970.34
2022-09-06T01:23:45.208Z,101968.63
2022-09-06T01:27:40.569Z,101962.56
2022-09-06T01:31:12.993Z,101966.00
2022-09-06T01:34:41.500Z,101970.31
2022-09-06T01:38:04.492Z,101969.41
2022-09-06T01:41:26.619Z,101973.72
2022-09-06T01:44:55.494Z,101964.19
2022-09-06T01:48:25.966Z,101972.84
2022-09-06T01:52:02.603Z,101965.06
2022-09-06T01:55:32.168Z,101967.63
2022-09-06T01:59:08.941Z,101964.16
2022-09-06T02:02:43.584Z,101950.34
2022-09-06T02:06:10.159Z,101953.78
2022-09-06T02:09:41.147Z,101969.25
2022-09-06T02:13:07.143Z,101964.06
2022-09-06T02:16:31.536Z,101965.75
2022-09-06T02:19:59.487Z,101963.16
2022-09-06T02:23:24.940Z,101963.13
2022-09-06T02:26:48.661Z,101951.88
2022-09-06T02:30:11.900Z,101953.59
2022-09-06T02:33:35.996Z,101951.84
2022-09-06T02:36:59.561Z,101955.25
2022-09-06T02:40:22.027Z,101950.06
2022-09-06T02:43:44.561Z,101953.53
2022-09-06T02:47:06.473Z,101946.63
2022-09-06T02:50:28.692Z,101945.69
2022-09-06T02:53:52.251Z,101950.00
2022-09-06T02:57:14.393Z,101949.97
2022-09-06T03:00:36.614Z,101957.69
2022-09-06T03:03:58.785Z,101943.03
2022-09-06T03:07:20.756Z,101946.47
2022-09-06T03:10:49.440Z,101937.84
2022-09-06T03:14:11.349Z,101950.78
2022-09-06T03:17:33.432Z,101937.81
2022-09-06T03:20:56.330Z,101944.72
2022-09-06T03:24:18.457Z,101940.38
2022-09-06T03:27:41.955Z,101930.81
2022-09-06T03:31:04.221Z,101945.53
2022-09-06T03:34:26.032Z,101941.22
2022-09-06T03:37:47.849Z,101936.03
2022-09-06T03:41:09.877Z,101936.00
2022-09-06T03:44:33.990Z,101935.16
2022-09-06T03:47:55.761Z,101932.56
2022-09-06T03:51:17.945Z,101936.88
2022-09-06T03:54:40.908Z,101937.78
2022-09-06T03:58:02.633Z,101940.34
2022-09-06T04:01:26.029Z,101938.59
2022-09-06T04:04:48.219Z,101923.91
2022-09-06T04:13:03.275Z,101927.41
2022-09-06T04:16:28.184Z,101930.00
2022-09-06T04:19:50.300Z,101929.13
2022-09-06T04:23:12.059Z,101924.81
2022-09-06T04:26:34.037Z,101935.19
2022-09-06T04:29:56.773Z,101933.50
2022-09-06T04:33:20.861Z,101935.25
2022-09-06T04:36:47.713Z,101937.91
2022-09-06T04:40:11.071Z,101925.91
2022-09-06T04:43:33.322Z,101929.47
2022-09-06T04:47:09.347Z,101932.13
2022-09-06T04:50:33.072Z,101928.75
2022-09-06T04:53:55.192Z,101918.44
2022-09-06T04:57:17.030Z,101911.59
2022-09-06T05:00:39.190Z,101918.53
2022-09-06T05:04:01.061Z,101919.44
2022-09-06T05:07:24.390Z,101904.75
2022-09-06T05:10:46.269Z,101923.78
2022-09-06T05:14:08.233Z,101916.88
2022-09-06T05:17:30.137Z,101916.00
2022-09-06T05:20:53.473Z,101908.22
2022-09-06T05:24:16.848Z,101914.28
2022-09-06T05:27:39.069Z,101903.91
2022-09-06T05:31:09.372Z,101903.91
2022-09-06T05:34:31.243Z,101902.13
2022-09-06T05:37:53.219Z,101899.47
2022-09-06T05:41:16.357Z,101903.69
2022-09-06T05:44:39.231Z,101905.28
2022-09-06T05:48:01.221Z,101905.16
2022-09-06T05:51:23.137Z,101892.06
2022-09-06T05:54:45.232Z,101888.47
2022-09-06T05:58:08.637Z,101900.44
2022-09-06T06:01:32.063Z,101878.63
2022-09-06T06:04:56.134Z,101870.69
2022-09-06T06:08:18.234Z,101875.63
2022-09-06T06:11:41.015Z,101877.06
2022-09-06T06:15:05.943Z,101890.66
2022-09-06T06:18:28.142Z,101879.09
2022-09-06T06:21:49.792Z,101875.38
2022-09-06T06:25:12.717Z,101883.69
2022-09-06T06:28:35.828Z,101884.25
2022-09-06T06:31:59.241Z,101883.03
2022-09-06T06:35:21.318Z,101887.84
2022-09-06T06:38:44.910Z,101879.50
2022-09-06T06:42:07.001Z,101880.69
2022-09-06T06:45:29.083Z,101876.03
2022-09-06T06:48:54.877Z,101867.94
2022-09-06T06:52:17.261Z,101865.03
2022-09-06T06:55:40.072Z,101861.16
2022-09-06T06:59:04.484Z,101868.66
2022-09-06T07:02:26.592Z,101860.56
2022-09-06T07:13:14.108Z,101873.38
2022-09-06T07:16:36.679Z,101874.19
2022-09-06T07:20:14.525Z,101873.72
2022-09-06T07:31:02.311Z,101876.09
2022-09-06T07:34:26.013Z,101869.69
2022-09-06T07:37:53.996Z,101865.81
2022-09-06T07:41:17.664Z,101865.44
2022-09-06T07:44:39.681Z,101854.66
2022-09-06T07:48:01.473Z,101855.91
2022-09-06T07:51:24.001Z,101841.88
2022-09-06T07:54:46.176Z,101839.91
2022-09-06T07:58:09.637Z,101841.94
2022-09-06T08:01:32.900Z,101842.94
2022-09-06T08:04:56.899Z,101841.72
2022-09-06T08:12:01.389Z,101831.81
2022-09-06T08:15:24.714Z,101833.00
2022-09-06T08:18:49.081Z,101827.31
2022-09-06T08:22:11.036Z,101815.78
2022-09-06T08:25:32.859Z,101822.00
2022-09-06T08:28:56.269Z,101823.38
2022-09-06T08:32:20.535Z,101825.59
2022-09-06T08:35:42.229Z,101816.31
2022-09-06T08:39:06.740Z,101816.81
2022-09-06T08:42:28.825Z,101806.06
2022-09-06T08:45:55.851Z,101798.22
2022-09-06T08:49:19.652Z,101799.25
2022-09-06T08:53:16.072Z,101794.16
2022-09-06T08:56:51.208Z,101781.34
2022-09-06T09:00:15.287Z,101785.09
2022-09-06T09:03:39.045Z,101774.19
2022-09-06T09:07:13.290Z,101776.69
2022-09-06T09:10:43.733Z,101781.56
2022-09-06T09:14:10.107Z,101771.34
2022-09-06T09:17:33.793Z,101767.16
2022-09-06T09:20:56.016Z,101748.34
2022-09-06T09:24:19.307Z,101755.06
2022-09-06T09:27:41.973Z,101744.84
2022-09-06T09:31:06.824Z,101740.81
2022-09-06T09:34:33.437Z,101735.56
2022-09-06T09:38:07.853Z,101718.94
2022-09-06T09:41:36.304Z,101719.63
2022-09-06T09:44:59.106Z,101717.47
2022-09-06T09:48:25.422Z,101728.66
2022-09-06T09:52:05.384Z,101717.75
2022-09-06T09:55:29.734Z,101709.47
2022-09-06T09:58:55.586Z,101718.72
2022-09-06T10:02:22.474Z,101707.63
2022-09-06T10:06:02.114Z,101686.88
2022-09-06T10:09:37.569Z,101690.44
2022-09-06T10:13:10.353Z,101694.22
2022-09-06T10:16:46.263Z,101701.50
2022-09-06T10:20:10.691Z,101691.69
2022-09-06T10:27:31.215Z,101669.19
2022-09-06T10:31:16.201Z,101676.72
2022-09-06T10:34:59.390Z,101669.38
2022-09-06T10:38:35.856Z,101671.94
2022-09-06T10:42:06.411Z,101665.88
2022-09-06T10:45:47.593Z,101652.94
2022-09-06T10:49:16.391Z,101670.63
2022-09-06T10:52:43.333Z,101668.66
2022-09-06T10:56:09.997Z,101649.44
2022-09-06T11:06:57.174Z,101642.69
2022-09-06T11:10:25.257Z,101651.66
2022-09-06T11:13:47.445Z,101643.31
2022-09-06T11:17:13.273Z,101639.97
2022-09-06T11:20:40.255Z,101629.59
2022-09-06T11:24:12.532Z,101633.00
2022-09-06T11:27:39.209Z,101622.97
2022-09-06T11:31:02.766Z,101619.94
2022-09-06T11:34:27.491Z,101622.38
2022-09-06T11:37:58.656Z,101612.78
2022-09-06T11:41:20.660Z,101603.78
2022-09-06T11:45:21.485Z,101592.31
2022-09-06T11:49:03.440Z,101597.84
2022-09-06T11:52:55.264Z,101582.22
2022-09-06T11:56:30.926Z,101581.53
2022-09-06T12:00:04.311Z,101585.72
2022-09-06T12:04:07.358Z,101571.38
2022-09-06T12:07:31.807Z,101571.03
2022-09-06T12:11:00.124Z,101558.75
2022-09-06T12:14:31.899Z,101550.75
2022-09-06T12:17:55.558Z,101545.78
2022-09-06T12:21:35.741Z,101534.72
2022-09-06T12:24:59.906Z,101529.25
2022-09-06T12:28:42.744Z,101520.94
2022-09-06T12:32:06.069Z,101519.78
2022-09-06T12:39:13.429Z,101503.31
2022-09-06T12:42:39.452Z,101508.00
2022-09-06T12:46:01.540Z,101502.25
2022-09-06T12:49:24.570Z,101497.66
2022-09-06T12:52:50.797Z,101487.97
2022-09-06T12:56:13.772Z,101478.53
2022-09-06T12:59:35.695Z,101484.72
2022-09-06T13:03:09.254Z,101476.91
2022-09-06T13:06:36.703Z,101471.88
2022-09-06T13:10:00.327Z,101458.00
2022-09-06T13:13:25.523Z,101459.88
2022-09-06T13:16:49.733Z,101458.06
2022-09-06T13:20:13.764Z,101463.28
2022-09-06T13:23:42.964Z,101462.63
2022-09-06T13:27:19.784Z,101458.59
2022-09-06T13:30:49.570Z,101450.63
2022-09-06T13:34:11.750Z,101449.16
2022-09-06T13:37:36.453Z,101447.50
2022-09-06T13:41:12.516Z,101449.28
2022-09-06T13:44:38.227Z,101436.34
2022-09-06T13:48:19.357Z,101434.22
2022-09-06T13:51:44.666Z,101428.94
2022-09-06T13:55:08.079Z,101424.50
2022-09-06T13:58:30.796Z,101414.06
2022-09-06T14:02:01.062Z,101413.88
2022-09-06T14:05:24.702Z,101415.72
2022-09-06T14:09:06.449Z,101414.09
2022-09-06T14:12:28.588Z,101410.91
2022-09-06T14:15:51.542Z,101405.34
2022-09-06T14:19:13.748Z,101408.63
2022-09-06T14:22:36.951Z,101406.47
2022-09-06T14:26:00.041Z,101399.09
2022-09-06T14:29:21.918Z,101383.31
2022-09-06T14:32:43.785Z,101390.22
2022-09-06T14:36:08.624Z,101390.41
2022-09-06T14:39:32.188Z,101389.25
2022-09-06T14:42:54.185Z,101384.38
2022-09-06T14:46:18.348Z,101371.66
2022-09-06T14:49:40.502Z,101381.19
2022-09-06T14:53:02.845Z,101363.53
2022-09-06T14:56:27.291Z,101365.41
2022-09-06T14:59:49.182Z,101336.91
2022-09-06T15:03:11.482Z,101355.63
2022-09-06T15:06:37.131Z,101351.38
2022-09-06T15:09:59.617Z,101342.50
2022-09-06T15:13:23.357Z,101343.88
2022-09-06T15:16:45.840Z,101324.84
2022-09-06T15:20:08.301Z,101323.06
2022-09-06T15:23:30.477Z,101325.69
2022-09-06T15:26:52.451Z,101330.03
2022-09-06T15:30:16.021Z,101313.03
2022-09-06T15:33:39.701Z,101315.75
2022-09-06T15:37:01.762Z,101312.78
2022-09-06T15:40:25.216Z,101306.16
2022-09-06T15:43:49.650Z,101299.69
2022-09-06T15:47:13.309Z,101293.25
2022-09-06T15:50:50.815Z,101298.78
2022-09-06T15:54:14.594Z,101297.31
2022-09-06T15:57:36.647Z,101299.28
2022-09-06T16:01:07.394Z,101290.66
2022-09-06T16:04:30.832Z,101287.59
2022-09-06T16:07:53.193Z,101280.53
2022-09-06T16:11:16.706Z,101285.38
2022-09-06T16:14:38.942Z,101283.81
2022-09-06T16:18:05.491Z,101278.03
2022-09-06T16:21:32.290Z,101272.09
2022-09-06T16:24:54.241Z,101273.38
2022-09-06T16:28:16.176Z,101266.81
2022-09-06T16:31:40.493Z,101266.34
2022-09-06T16:35:03.939Z,101256.38
2022-09-06T16:38:31.513Z,101250.53
2022-09-06T16:41:53.483Z,101248.97
2022-09-06T16:45:15.516Z,101240.66
2022-09-06T16:48:37.502Z,101248.69
2022-09-06T16:52:00.121Z,101241.88
2022-09-06T16:55:23.603Z,101250.16
2022-09-06T16:58:49.953Z,101238.41
2022-09-06T17:02:12.809Z,101238.84
2022-09-06T17:05:35.852Z,101235.75
2022-09-06T17:08:58.540Z,101237.91
2022-09-06T17:12:22.176Z,101234.97
2022-09-06T17:16:01.608Z,101233.72
2022-09-06T17:19:23.940Z,101233.63
2022-09-06T17:22:50.901Z,101227.72
2022-09-06T17:26:12.593Z,101217.97
2022-09-06T17:29:35.878Z,101218.03
2022-09-06T17:32:57.678Z,101215.78
2022-09-06T17:36:23.760Z,101209.19
2022-09-06T17:39:45.534Z,101214.72
2022-09-06T17:43:07.532Z,101200.19
2022-09-06T17:46:31.422Z,101193.50
2022-09-06T17:49:53.633Z,101201.38
2022-09-06T17:53:15.416Z,101200.66
2022-09-06T17:56:37.991Z,101195.91
2022-09-06T18:00:00.003Z,101204.50
2022-09-06T18:03:23.620Z,101197.75
2022-09-06T18:06:46.979Z,101190.78
2022-09-06T18:10:10.780Z,101196.97
2022-09-06T18:13:33.282Z,101192.75
2022-09-06T18:16:56.085Z,101191.84
2022-09-06T18:20:19.234Z,101197.31
2022-09-06T18:23:41.452Z,101180.91
2022-09-06T18:27:03.392Z,101183.41
2022-09-06T18:30:25.423Z,101180.69
2022-09-06T18:33:47.411Z,101173.84
2022-09-06T18:37:10.967Z,101179.13
2022-09-06T18:40:33.286Z,101169.72
2022-09-06T18:43:58.907Z,101165.44
2022-09-06T18:47:22.585Z,101167.38
2022-09-06T18:50:44.917Z,101172.53
2022-09-06T18:54:08.428Z,101161.47
2022-09-06T18:57:31.126Z,101148.50
2022-09-06T19:00:53.460Z,101157.03
2022-09-06T19:04:15.817Z,101149.34
2022-09-06T19:07:37.946Z,101141.75
2022-09-06T19:11:03.455Z,101120.34
2022-09-06T19:14:25.432Z,101143.44
2022-09-06T19:17:50.500Z,101131.25
2022-09-06T19:21:14.215Z,101126.00
2022-09-06T19:24:36.372Z,101133.97
2022-09-06T19:27:59.727Z,101124.47
2022-09-06T19:31:22.973Z,101123.53
2022-09-06T19:34:45.052Z,101119.22
2022-09-06T19:38:06.970Z,101103.81
2022-09-06T19:41:30.231Z,101104.47
2022-09-06T19:44:53.827Z,101114.97
2022-09-06T19:48:16.005Z,101101.84
2022-09-06T19:51:39.812Z,101096.75
2022-09-06T19:55:02.208Z,101093.28
2022-09-06T19:58:25.947Z,101088.94
2022-09-06T20:01:49.753Z,101090.66
2022-09-06T20:05:11.770Z,101085.41
2022-09-06T20:08:33.906Z,101081.84
2022-09-06T20:11:56.366Z,101075.81
2022-09-06T20:15:18.576Z,101066.13
2022-09-06T20:18:42.628Z,101075.47
2022-09-06T20:22:04.824Z,101070.28
2022-09-06T20:25:27.019Z,101068.41
2022-09-06T20:28:49.160Z,101075.25
2022-09-06T20:32:11.378Z,101058.69
2022-09-06T20:35:34.949Z,101052.53
2022-09-06T20:38:57.118Z,101056.75
2022-09-06T20:42:19.189Z,101054.06
2022-09-06T20:45:41.495Z,101046.91
2022-09-06T20:49:04.893Z,101053.84
2022-09-06T20:52:28.450Z,101053.00
2022-09-06T20:55:57.877Z,101048.53
2022-09-06T20:59:20.278Z,101046.25
2022-09-06T21:02:42.515Z,101045.00
2022-09-06T21:06:04.807Z,101041.53
2022-09-06T21:09:28.487Z,101043.31
2022-09-06T21:12:51.438Z,101040.53
2022-09-06T21:16:13.530Z,101036.22
2022-09-06T21:19:36.491Z,101040.47
2022-09-06T21:22:58.892Z,101043.09
2022-09-06T21:26:23.094Z,101037.84
2022-09-06T21:29:45.182Z,101023.31
2022-09-06T21:33:07.845Z,101032.59
2022-09-06T21:36:31.953Z,101025.59
2022-09-06T21:39:54.001Z,101025.44
2022-09-06T21:43:17.026Z,101019.34
2022-09-06T21:46:40.760Z,101008.91
2022-09-06T21:50:02.662Z,101001.72
2022-09-06T21:53:26.710Z,100987.13
2022-09-06T21:56:52.521Z,100999.97
2022-09-06T22:00:17.733Z,100992.19
2022-09-06T22:03:40.904Z,101000.88
2022-09-06T22:07:02.992Z,100987.72
2022-09-06T22:10:25.778Z,100983.16
2022-09-06T22:13:48.716Z,100980.53
2022-09-06T22:17:11.960Z,100979.59
2022-09-06T22:20:34.396Z,100972.66
2022-09-06T22:23:58.045Z,100966.72
2022-09-06T22:27:19.890Z,100975.91
2022-09-06T22:30:42.104Z,100982.66
2022-09-06T22:34:05.897Z,100975.47
2022-09-06T22:37:28.039Z,100971.84
2022-09-06T22:40:50.057Z,100964.75
2022-09-06T22:44:12.079Z,100966.53
2022-09-06T22:47:34.387Z,100964.81
2022-09-06T22:50:57.666Z,100956.19
2022-09-06T22:54:19.795Z,100952.78
2022-09-06T22:57:41.493Z,100948.38
2022-09-06T23:01:08.992Z,100946.03
2022-09-06T23:04:30.828Z,100950.31
2022-09-06T23:07:56.752Z,100942.50
2022-09-06T23:11:20.201Z,100946.03
2022-09-06T23:14:42.501Z,100943.41
2022-09-06T23:18:05.510Z,100936.38
2022-09-06T23:21:28.087Z,100938.25
2022-09-06T23:24:51.565Z,100931.38
2022-09-06T23:28:13.765Z,100922.03
2022-09-06T23:31:36.191Z,100919.41
2022-09-06T23:34:58.066Z,100911.50
2022-09-06T23:38:20.682Z,100905.31
2022-09-06T23:41:43.963Z,100902.75
2022-09-06T23:45:06.419Z,100898.44
2022-09-06T23:48:28.595Z,100903.69
2022-09-06T23:51:50.694Z,100897.59
2022-09-06T23:55:12.468Z,100902.84
2022-09-06T23:58:35.992Z,100897.59
